sensor_id;sensor_type;location;lat;lon;timestamp;P1;durP1;ratioP1;P2;durP2;ratioP2
76346;SDS011;65171;48.378;10.010;2022-11-24T00:01:36;8.43;;;7.60;;
76346;SDS011;65171;48.378;10.010;2022-11-24T00:04:02;9.00;;;8.10;;
76346;SDS011;65171;48.378;10.010;2022-11-24T00:06:29;8.43;;;7.53;;
76346;SDS011;65171;48.378;10.010;2022-11-24T00:08:55;10.57;;;7.50;;
76346;SDS011;65171;48.378;10.010;2022-11-24T00:11:22;9.50;;;6.70;;
76346;SDS011;65171;48.378;10.010;2022-11-24T00:13:49;7.57;;;6.80;;
76346;SDS011;65171;48.378;10.010;2022-11-24T00:16:15;9.03;;;6.70;;
76346;SDS011;65171;48.378;10.010;2022-11-24T00:18:44;6.97;;;6.27;;
76346;SDS011;65171;48.378;10.010;2022-11-24T00:21:10;6.73;;;6.03;;
76346;SDS011;65171;48.378;10.010;2022-11-24T00:23:36;8.93;;;6.47;;
76346;SDS011;65171;48.378;10.010;2022-11-24T00:26:23;11.73;;;6.70;;
76346;SDS011;65171;48.378;10.010;2022-11-24T00:28:50;8.90;;;6.50;;
76346;SDS011;65171;48.378;10.010;2022-11-24T00:31:27;8.43;;;6.20;;
76346;SDS011;65171;48.378;10.010;2022-11-24T00:33:55;8.53;;;6.00;;
76346;SDS011;65171;48.378;10.010;2022-11-24T00:36:22;8.93;;;6.70;;
76346;SDS011;65171;48.378;10.010;2022-11-24T00:39:02;8.17;;;5.90;;
76346;SDS011;65171;48.378;10.010;2022-11-24T00:41:30;7.63;;;6.27;;
76346;SDS011;65171;48.378;10.010;2022-11-24T00:43:55;7.10;;;5.57;;
76346;SDS011;65171;48.378;10.010;2022-11-24T00:46:22;9.40;;;6.17;;
76346;SDS011;65171;48.378;10.010;2022-11-24T00:48:47;8.47;;;5.80;;
76346;SDS011;65171;48.378;10.010;2022-11-24T00:51:14;9.40;;;6.43;;
76346;SDS011;65171;48.378;10.010;2022-11-24T00:53:41;9.70;;;6.30;;
76346;SDS011;65171;48.378;10.010;2022-11-24T00:56:06;6.80;;;6.10;;
76346;SDS011;65171;48.378;10.010;2022-11-24T00:58:32;10.10;;;6.27;;
76346;SDS011;65171;48.378;10.010;2022-11-24T01:01:05;10.10;;;6.83;;
76346;SDS011;65171;48.378;10.010;2022-11-24T01:03:39;7.60;;;5.97;;
76346;SDS011;65171;48.378;10.010;2022-11-24T01:06:05;8.17;;;6.10;;
76346;SDS011;65171;48.378;10.010;2022-11-24T01:08:31;9.30;;;6.40;;
76346;SDS011;65171;48.378;10.010;2022-11-24T01:11:11;9.90;;;5.53;;
76346;SDS011;65171;48.378;10.010;2022-11-24T01:13:44;10.97;;;6.60;;
76346;SDS011;65171;48.378;10.010;2022-11-24T01:16:12;9.10;;;6.00;;
76346;SDS011;65171;48.378;10.010;2022-11-24T01:18:43;7.63;;;6.20;;
76346;SDS011;65171;48.378;10.010;2022-11-24T01:21:09;8.47;;;5.53;;
76346;SDS011;65171;48.378;10.010;2022-11-24T01:23:34;10.33;;;5.67;;
76346;SDS011;65171;48.378;10.010;2022-11-24T01:26:02;8.27;;;6.10;;
76346;SDS011;65171;48.378;10.010;2022-11-24T01:28:31;8.53;;;5.70;;
76346;SDS011;65171;48.378;10.010;2022-11-24T01:30:57;8.47;;;5.70;;
76346;SDS011;65171;48.378;10.010;2022-11-24T01:33:24;12.37;;;6.33;;
76346;SDS011;65171;48.378;10.010;2022-11-24T01:35:49;7.13;;;5.30;;
76346;SDS011;65171;48.378;10.010;2022-11-24T01:38:15;11.77;;;7.27;;
76346;SDS011;65171;48.378;10.010;2022-11-24T01:40:40;8.13;;;6.10;;
76346;SDS011;65171;48.378;10.010;2022-11-24T01:43:14;11.57;;;6.03;;
76346;SDS011;65171;48.378;10.010;2022-11-24T01:45:41;8.73;;;5.60;;
76346;SDS011;65171;48.378;10.010;2022-11-24T01:48:10;8.87;;;6.00;;
76346;SDS011;65171;48.378;10.010;2022-11-24T01:50:40;11.87;;;6.70;;
76346;SDS011;65171;48.378;10.010;2022-11-24T01:53:07;7.53;;;6.13;;
76346;SDS011;65171;48.378;10.010;2022-11-24T01:55:35;9.73;;;5.90;;
76346;SDS011;65171;48.378;10.010;2022-11-24T01:58:13;8.63;;;6.53;;
76346;SDS011;65171;48.378;10.010;2022-11-24T02:00:42;9.10;;;6.30;;
76346;SDS011;65171;48.378;10.010;2022-11-24T02:03:08;10.70;;;6.20;;
76346;SDS011;65171;48.378;10.010;2022-11-24T02:05:38;11.47;;;6.37;;
76346;SDS011;65171;48.378;10.010;2022-11-24T02:08:20;8.80;;;6.47;;
76346;SDS011;65171;48.378;10.010;2022-11-24T02:10:51;8.73;;;6.07;;
76346;SDS011;65171;48.378;10.010;2022-11-24T02:13:18;10.57;;;6.57;;
76346;SDS011;65171;48.378;10.010;2022-11-24T02:15:45;11.80;;;6.90;;
76346;SDS011;65171;48.378;10.010;2022-11-24T02:18:11;9.77;;;7.20;;
76346;SDS011;65171;48.378;10.010;2022-11-24T02:20:36;9.97;;;6.97;;
76346;SDS011;65171;48.378;10.010;2022-11-24T02:28:25;9.20;;;7.30;;
76346;SDS011;65171;48.378;10.010;2022-11-24T02:30:52;10.60;;;7.07;;
76346;SDS011;65171;48.378;10.010;2022-11-24T02:33:18;10.87;;;7.00;;
76346;SDS011;65171;48.378;10.010;2022-11-24T02:35:45;9.53;;;7.33;;
76346;SDS011;65171;48.378;10.010;2022-11-24T02:38:11;10.63;;;7.80;;
76346;SDS011;65171;48.378;10.010;2022-11-24T02:40:37;10.50;;;6.90;;
76346;SDS011;65171;48.378;10.010;2022-11-24T02:43:06;10.63;;;6.97;;
76346;SDS011;65171;48.378;10.010;2022-11-24T02:45:36;8.00;;;7.03;;
76346;SDS011;65171;48.378;10.010;2022-11-24T02:48:01;8.00;;;7.00;;
76346;SDS011;65171;48.378;10.010;2022-11-24T02:50:27;9.37;;;6.70;;
76346;SDS011;65171;48.378;10.010;2022-11-24T02:52:52;9.67;;;6.23;;
76346;SDS011;65171;48.378;10.010;2022-11-24T02:55:17;10.73;;;7.10;;
76346;SDS011;65171;48.378;10.010;2022-11-24T02:57:42;8.73;;;6.77;;
76346;SDS011;65171;48.378;10.010;2022-11-24T03:00:08;8.53;;;6.10;;
76346;SDS011;65171;48.378;10.010;2022-11-24T03:02:34;10.27;;;6.60;;
76346;SDS011;65171;48.378;10.010;2022-11-24T03:04:59;10.07;;;6.63;;
76346;SDS011;65171;48.378;10.010;2022-11-24T03:07:24;9.60;;;6.60;;
76346;SDS011;65171;48.378;10.010;2022-11-24T03:09:49;6.90;;;6.17;;
76346;SDS011;65171;48.378;10.010;2022-11-24T03:12:15;7.10;;;5.77;;
76346;SDS011;65171;48.378;10.010;2022-11-24T03:14:40;9.27;;;6.47;;
76346;SDS011;65171;48.378;10.010;2022-11-24T03:17:05;10.37;;;6.33;;
76346;SDS011;65171;48.378;10.010;2022-11-24T03:19:30;9.53;;;6.13;;
76346;SDS011;65171;48.378;10.010;2022-11-24T03:21:55;7.80;;;5.63;;
76346;SDS011;65171;48.378;10.010;2022-11-24T03:24:21;8.30;;;5.10;;
76346;SDS011;65171;48.378;10.010;2022-11-24T03:26:46;7.50;;;5.07;;
76346;SDS011;65171;48.378;10.010;2022-11-24T03:29:11;8.37;;;5.37;;
76346;SDS011;65171;48.378;10.010;2022-11-24T03:31:36;4.73;;;4.27;;
76346;SDS011;65171;48.378;10.010;2022-11-24T03:34:02;5.27;;;4.33;;
76346;SDS011;65171;48.378;10.010;2022-11-24T03:36:27;7.03;;;4.07;;
76346;SDS011;65171;48.378;10.010;2022-11-24T03:38:52;7.43;;;4.40;;
76346;SDS011;65171;48.378;10.010;2022-11-24T03:41:17;4.27;;;3.80;;
76346;SDS011;65171;48.378;10.010;2022-11-24T03:43:43;3.90;;;3.37;;
76346;SDS011;65171;48.378;10.010;2022-11-24T03:46:08;4.93;;;3.50;;
76346;SDS011;65171;48.378;10.010;2022-11-24T03:48:33;6.33;;;3.83;;
76346;SDS011;65171;48.378;10.010;2022-11-24T03:51:00;5.00;;;3.90;;
76346;SDS011;65171;48.378;10.010;2022-11-24T03:53:26;5.07;;;4.00;;
76346;SDS011;65171;48.378;10.010;2022-11-24T03:55:52;4.30;;;3.60;;
76346;SDS011;65171;48.378;10.010;2022-11-24T03:58:18;5.17;;;3.83;;
76346;SDS011;65171;48.378;10.010;2022-11-24T04:00:43;5.80;;;3.17;;
76346;SDS011;65171;48.378;10.010;2022-11-24T04:03:08;4.63;;;3.10;;
76346;SDS011;65171;48.378;10.010;2022-11-24T04:05:33;5.27;;;3.10;;
76346;SDS011;65171;48.378;10.010;2022-11-24T04:07:59;5.83;;;2.90;;
76346;SDS011;65171;48.378;10.010;2022-11-24T04:10:24;5.13;;;3.00;;
76346;SDS011;65171;48.378;10.010;2022-11-24T04:12:49;4.93;;;2.70;;
76346;SDS011;65171;48.378;10.010;2022-11-24T04:15:15;7.97;;;2.80;;
76346;SDS011;65171;48.378;10.010;2022-11-24T04:17:42;5.43;;;2.90;;
76346;SDS011;65171;48.378;10.010;2022-11-24T04:20:09;4.70;;;2.50;;
76346;SDS011;65171;48.378;10.010;2022-11-24T04:22:35;5.13;;;2.73;;
76346;SDS011;65171;48.378;10.010;2022-11-24T04:25:00;4.90;;;2.70;;
76346;SDS011;65171;48.378;10.010;2022-11-24T04:27:26;6.23;;;3.13;;
76346;SDS011;65171;48.378;10.010;2022-11-24T04:29:51;5.50;;;2.80;;
76346;SDS011;65171;48.378;10.010;2022-11-24T04:32:16;6.23;;;2.93;;
76346;SDS011;65171;48.378;10.010;2022-11-24T04:34:42;8.53;;;2.90;;
76346;SDS011;65171;48.378;10.010;2022-11-24T04:37:07;4.03;;;2.70;;
76346;SDS011;65171;48.378;10.010;2022-11-24T04:39:32;4.80;;;2.77;;
76346;SDS011;65171;48.378;10.010;2022-11-24T04:41:58;4.20;;;2.80;;
76346;SDS011;65171;48.378;10.010;2022-11-24T04:44:23;5.27;;;3.00;;
76346;SDS011;65171;48.378;10.010;2022-11-24T04:46:48;6.60;;;3.53;;
76346;SDS011;65171;48.378;10.010;2022-11-24T04:49:13;5.60;;;3.90;;
76346;SDS011;65171;48.378;10.010;2022-11-24T04:51:39;6.67;;;4.13;;
76346;SDS011;65171;48.378;10.010;2022-11-24T04:54:11;5.43;;;3.50;;
76346;SDS011;65171;48.378;10.010;2022-11-24T04:56:37;8.23;;;4.00;;
76346;SDS011;65171;48.378;10.010;2022-11-24T04:59:03;7.37;;;4.13;;
76346;SDS011;65171;48.378;10.010;2022-11-24T05:01:29;11.77;;;4.47;;
76346;SDS011;65171;48.378;10.010;2022-11-24T05:03:54;9.00;;;4.50;;
76346;SDS011;65171;48.378;10.010;2022-11-24T05:06:21;8.17;;;4.40;;
76346;SDS011;65171;48.378;10.010;2022-11-24T05:08:47;8.10;;;4.83;;
76346;SDS011;65171;48.378;10.010;2022-11-24T05:11:13;6.70;;;5.13;;
76346;SDS011;65171;48.378;10.010;2022-11-24T05:13:38;9.40;;;5.50;;
76346;SDS011;65171;48.378;10.010;2022-11-24T05:16:03;10.97;;;5.27;;
76346;SDS011;65171;48.378;10.010;2022-11-24T05:18:29;9.07;;;4.93;;
76346;SDS011;65171;48.378;10.010;2022-11-24T05:20:54;7.67;;;4.97;;
76346;SDS011;65171;48.378;10.010;2022-11-24T05:23:19;8.40;;;5.00;;
76346;SDS011;65171;48.378;10.010;2022-11-24T05:25:44;9.07;;;5.47;;
76346;SDS011;65171;48.378;10.010;2022-11-24T05:28:09;7.80;;;5.13;;
76346;SDS011;65171;48.378;10.010;2022-11-24T05:30:36;8.90;;;5.13;;
76346;SDS011;65171;48.378;10.010;2022-11-24T05:33:05;13.77;;;5.57;;
76346;SDS011;65171;48.378;10.010;2022-11-24T05:35:32;8.73;;;5.10;;
76346;SDS011;65171;48.378;10.010;2022-11-24T05:37:57;8.80;;;4.83;;
76346;SDS011;65171;48.378;10.010;2022-11-24T05:40:23;11.73;;;4.97;;
76346;SDS011;65171;48.378;10.010;2022-11-24T05:42:48;10.97;;;4.87;;
76346;SDS011;65171;48.378;10.010;2022-11-24T05:45:14;9.37;;;4.40;;
76346;SDS011;65171;48.378;10.010;2022-11-24T05:47:41;7.87;;;4.77;;
76346;SDS011;65171;48.378;10.010;2022-11-24T05:50:08;9.50;;;4.37;;
76346;SDS011;65171;48.378;10.010;2022-11-24T05:52:34;12.20;;;4.80;;
76346;SDS011;65171;48.378;10.010;2022-11-24T05:55:00;9.43;;;4.17;;
76346;SDS011;65171;48.378;10.010;2022-11-24T05:57:25;12.27;;;4.77;;
76346;SDS011;65171;48.378;10.010;2022-11-24T05:59:51;9.83;;;4.40;;
76346;SDS011;65171;48.378;10.010;2022-11-24T06:02:16;11.17;;;4.73;;
76346;SDS011;65171;48.378;10.010;2022-11-24T06:04:41;9.73;;;4.67;;
76346;SDS011;65171;48.378;10.010;2022-11-24T06:07:07;10.77;;;4.80;;
76346;SDS011;65171;48.378;10.010;2022-11-24T06:09:36;13.47;;;4.27;;
76346;SDS011;65171;48.378;10.010;2022-11-24T06:12:03;13.73;;;4.43;;
76346;SDS011;65171;48.378;10.010;2022-11-24T06:14:29;11.37;;;4.57;;
76346;SDS011;65171;48.378;10.010;2022-11-24T06:16:55;16.33;;;4.37;;
76346;SDS011;65171;48.378;10.010;2022-11-24T06:19:20;12.23;;;3.90;;
76346;SDS011;65171;48.378;10.010;2022-11-24T06:21:45;12.70;;;4.00;;
76346;SDS011;65171;48.378;10.010;2022-11-24T06:24:10;12.97;;;3.80;;
76346;SDS011;65171;48.378;10.010;2022-11-24T06:26:35;9.30;;;3.53;;
76346;SDS011;65171;48.378;10.010;2022-11-24T06:29:01;9.13;;;3.70;;
76346;SDS011;65171;48.378;10.010;2022-11-24T06:31:26;11.23;;;3.97;;
76346;SDS011;65171;48.378;10.010;2022-11-24T06:33:52;13.47;;;4.60;;
76346;SDS011;65171;48.378;10.010;2022-11-24T06:36:17;14.20;;;4.13;;
76346;SDS011;65171;48.378;10.010;2022-11-24T06:38:42;15.67;;;3.87;;
76346;SDS011;65171;48.378;10.010;2022-11-24T06:41:12;9.03;;;3.33;;
76346;SDS011;65171;48.378;10.010;2022-11-24T06:43:39;12.27;;;3.43;;
76346;SDS011;65171;48.378;10.010;2022-11-24T06:46:04;7.73;;;3.23;;
76346;SDS011;65171;48.378;10.010;2022-11-24T06:48:30;12.80;;;3.30;;
76346;SDS011;65171;48.378;10.010;2022-11-24T06:50:59;8.17;;;3.20;;
76346;SDS011;65171;48.378;10.010;2022-11-24T06:53:25;12.27;;;3.80;;
76346;SDS011;65171;48.378;10.010;2022-11-24T06:55:50;10.23;;;3.37;;
76346;SDS011;65171;48.378;10.010;2022-11-24T06:58:16;12.67;;;3.17;;
76346;SDS011;65171;48.378;10.010;2022-11-24T07:00:41;10.90;;;3.47;;
76346;SDS011;65171;48.378;10.010;2022-11-24T07:03:09;16.00;;;3.73;;
76346;SDS011;65171;48.378;10.010;2022-11-24T07:05:39;11.70;;;3.50;;
76346;SDS011;65171;48.378;10.010;2022-11-24T07:08:04;9.87;;;3.30;;
76346;SDS011;65171;48.378;10.010;2022-11-24T07:10:29;12.37;;;3.40;;
76346;SDS011;65171;48.378;10.010;2022-11-24T07:12:54;11.10;;;3.27;;
76346;SDS011;65171;48.378;10.010;2022-11-24T07:15:20;10.13;;;3.50;;
76346;SDS011;65171;48.378;10.010;2022-11-24T07:17:45;11.53;;;3.30;;
76346;SDS011;65171;48.378;10.010;2022-11-24T07:20:10;9.60;;;3.53;;
76346;SDS011;65171;48.378;10.010;2022-11-24T07:22:35;10.90;;;3.67;;
76346;SDS011;65171;48.378;10.010;2022-11-24T07:25:00;14.03;;;3.10;;
76346;SDS011;65171;48.378;10.010;2022-11-24T07:27:26;7.87;;;2.97;;
76346;SDS011;65171;48.378;10.010;2022-11-24T07:29:51;11.37;;;2.80;;
76346;SDS011;65171;48.378;10.010;2022-11-24T07:32:16;11.27;;;3.07;;
76346;SDS011;65171;48.378;10.010;2022-11-24T07:34:42;11.93;;;3.27;;
76346;SDS011;65171;48.378;10.010;2022-11-24T07:37:07;11.87;;;3.37;;
76346;SDS011;65171;48.378;10.010;2022-11-24T07:39:32;11.27;;;3.00;;
76346;SDS011;65171;48.378;10.010;2022-11-24T07:41:58;10.03;;;2.97;;
76346;SDS011;65171;48.378;10.010;2022-11-24T07:44:23;11.97;;;3.37;;
76346;SDS011;65171;48.378;10.010;2022-11-24T07:46:48;11.23;;;3.10;;
76346;SDS011;65171;48.378;10.010;2022-11-24T07:49:13;9.23;;;3.37;;
76346;SDS011;65171;48.378;10.010;2022-11-24T07:51:38;11.27;;;2.90;;
76346;SDS011;65171;48.378;10.010;2022-11-24T07:54:04;11.80;;;3.27;;
76346;SDS011;65171;48.378;10.010;2022-11-24T07:56:29;13.77;;;3.30;;
76346;SDS011;65171;48.378;10.010;2022-11-24T07:58:54;11.63;;;3.30;;
76346;SDS011;65171;48.378;10.010;2022-11-24T08:01:19;11.03;;;3.37;;
76346;SDS011;65171;48.378;10.010;2022-11-24T08:03:45;10.93;;;3.30;;
76346;SDS011;65171;48.378;10.010;2022-11-24T08:06:11;7.60;;;2.90;;
76346;SDS011;65171;48.378;10.010;2022-11-24T08:08:36;12.87;;;3.43;;
76346;SDS011;65171;48.378;10.010;2022-11-24T08:11:05;10.50;;;3.30;;
76346;SDS011;65171;48.378;10.010;2022-11-24T08:13:32;9.70;;;3.30;;
76346;SDS011;65171;48.378;10.010;2022-11-24T08:16:02;11.30;;;3.37;;
76346;SDS011;65171;48.378;10.010;2022-11-24T08:18:27;7.53;;;2.87;;
76346;SDS011;65171;48.378;10.010;2022-11-24T08:20:53;9.87;;;3.03;;
76346;SDS011;65171;48.378;10.010;2022-11-24T08:23:21;10.27;;;3.60;;
76346;SDS011;65171;48.378;10.010;2022-11-24T08:25:46;8.97;;;3.20;;
76346;SDS011;65171;48.378;10.010;2022-11-24T08:28:11;7.83;;;2.57;;
76346;SDS011;65171;48.378;10.010;2022-11-24T08:30:36;10.80;;;2.97;;
76346;SDS011;65171;48.378;10.010;2022-11-24T08:33:01;8.87;;;2.93;;
76346;SDS011;65171;48.378;10.010;2022-11-24T08:35:26;9.53;;;2.73;;
76346;SDS011;65171;48.378;10.010;2022-11-24T08:37:52;11.47;;;2.80;;
76346;SDS011;65171;48.378;10.010;2022-11-24T08:40:17;9.57;;;2.60;;
76346;SDS011;65171;48.378;10.010;2022-11-24T08:42:42;11.03;;;2.80;;
76346;SDS011;65171;48.378;10.010;2022-11-24T08:45:07;12.67;;;3.33;;
76346;SDS011;65171;48.378;10.010;2022-11-24T08:47:33;9.00;;;2.60;;
76346;SDS011;65171;48.378;10.010;2022-11-24T08:49:58;8.27;;;2.83;;
76346;SDS011;65171;48.378;10.010;2022-11-24T08:52:23;7.87;;;2.80;;
76346;SDS011;65171;48.378;10.010;2022-11-24T08:54:49;10.33;;;2.60;;
76346;SDS011;65171;48.378;10.010;2022-11-24T08:57:14;11.70;;;2.87;;
76346;SDS011;65171;48.378;10.010;2022-11-24T08:59:39;10.43;;;3.00;;
76346;SDS011;65171;48.378;10.010;2022-11-24T09:02:04;8.20;;;2.50;;
76346;SDS011;65171;48.378;10.010;2022-11-24T09:04:30;8.63;;;2.90;;
76346;SDS011;65171;48.378;10.010;2022-11-24T09:06:57;9.53;;;3.40;;
76346;SDS011;65171;48.378;10.010;2022-11-24T09:09:22;12.07;;;3.13;;
76346;SDS011;65171;48.378;10.010;2022-11-24T09:11:47;9.63;;;2.90;;
76346;SDS011;65171;48.378;10.010;2022-11-24T09:14:12;11.00;;;3.07;;
76346;SDS011;65171;48.378;10.010;2022-11-24T09:16:38;7.67;;;3.10;;
76346;SDS011;65171;48.378;10.010;2022-11-24T09:19:04;9.27;;;3.03;;
76346;SDS011;65171;48.378;10.010;2022-11-24T09:21:30;10.27;;;3.13;;
76346;SDS011;65171;48.378;10.010;2022-11-24T09:23:56;9.83;;;3.03;;
76346;SDS011;65171;48.378;10.010;2022-11-24T09:26:23;12.03;;;3.40;;
76346;SDS011;65171;48.378;10.010;2022-11-24T09:28:53;9.57;;;3.73;;
76346;SDS011;65171;48.378;10.010;2022-11-24T09:31:19;9.10;;;3.30;;
76346;SDS011;65171;48.378;10.010;2022-11-24T09:33:45;11.73;;;3.67;;
76346;SDS011;65171;48.378;10.010;2022-11-24T09:36:11;9.40;;;3.50;;
76346;SDS011;65171;48.378;10.010;2022-11-24T09:38:37;9.40;;;3.33;;
76346;SDS011;65171;48.378;10.010;2022-11-24T09:44:06;8.73;;;3.10;;
76346;SDS011;65171;48.378;10.010;2022-11-24T09:49:37;6.20;;;2.70;;
76346;SDS011;65171;48.378;10.010;2022-11-24T09:52:09;6.67;;;2.57;;
76346;SDS011;65171;48.378;10.010;2022-11-24T09:54:39;6.77;;;2.83;;
76346;SDS011;65171;48.378;10.010;2022-11-24T09:57:11;5.83;;;2.37;;
76346;SDS011;65171;48.378;10.010;2022-11-24T09:59:38;5.83;;;2.47;;
76346;SDS011;65171;48.378;10.010;2022-11-24T10:02:06;8.17;;;2.90;;
76346;SDS011;65171;48.378;10.010;2022-11-24T10:04:40;5.50;;;2.33;;
76346;SDS011;65171;48.378;10.010;2022-11-24T10:07:13;6.70;;;2.37;;
76346;SDS011;65171;48.378;10.010;2022-11-24T10:12:47;4.63;;;2.20;;
76346;SDS011;65171;48.378;10.010;2022-11-24T10:25:58;4.63;;;2.03;;
76346;SDS011;65171;48.378;10.010;2022-11-24T10:28:50;5.90;;;2.20;;
76346;SDS011;65171;48.378;10.010;2022-11-24T10:31:29;4.57;;;1.80;;
76346;SDS011;65171;48.378;10.010;2022-11-24T10:33:59;4.53;;;1.67;;
76346;SDS011;65171;48.378;10.010;2022-11-24T10:36:35;4.00;;;1.87;;
76346;SDS011;65171;48.378;10.010;2022-11-24T10:44:41;3.47;;;1.43;;
76346;SDS011;65171;48.378;10.010;2022-11-24T10:47:12;3.50;;;1.67;;
76346;SDS011;65171;48.378;10.010;2022-11-24T10:49:41;1.70;;;1.40;;
76346;SDS011;65171;48.378;10.010;2022-11-24T10:52:27;2.53;;;1.90;;
76346;SDS011;65171;48.378;10.010;2022-11-24T10:54:58;3.47;;;2.00;;
76346;SDS011;65171;48.378;10.010;2022-11-24T10:57:43;2.67;;;2.00;;
76346;SDS011;65171;48.378;10.010;2022-11-24T11:02:42;2.17;;;1.23;;
76346;SDS011;65171;48.378;10.010;2022-11-24T11:05:25;2.30;;;1.30;;
76346;SDS011;65171;48.378;10.010;2022-11-24T11:10:38;1.80;;;1.00;;
76346;SDS011;65171;48.378;10.010;2022-11-24T11:13:20;1.50;;;1.10;;
76346;SDS011;65171;48.378;10.010;2022-11-24T11:15:49;1.10;;;1.00;;
76346;SDS011;65171;48.378;10.010;2022-11-24T11:18:15;1.80;;;1.10;;
76346;SDS011;65171;48.378;10.010;2022-11-24T11:20:54;1.97;;;1.00;;
76346;SDS011;65171;48.378;10.010;2022-11-24T11:23:23;2.30;;;1.00;;
76346;SDS011;65171;48.378;10.010;2022-11-24T11:25:50;2.80;;;1.17;;
76346;SDS011;65171;48.378;10.010;2022-11-24T11:29:01;1.33;;;1.10;;
76346;SDS011;65171;48.378;10.010;2022-11-24T11:31:37;1.00;;;0.90;;
76346;SDS011;65171;48.378;10.010;2022-11-24T11:36:41;2.10;;;0.93;;
76346;SDS011;65171;48.378;10.010;2022-11-24T11:39:14;2.43;;;1.00;;
76346;SDS011;65171;48.378;10.010;2022-11-24T11:41:58;1.10;;;0.90;;
76346;SDS011;65171;48.378;10.010;2022-11-24T11:44:35;1.63;;;1.17;;
76346;SDS011;65171;48.378;10.010;2022-11-24T11:50:01;1.53;;;1.00;;
76346;SDS011;65171;48.378;10.010;2022-11-24T12:00:57;4.03;;;1.20;;
76346;SDS011;65171;48.378;10.010;2022-11-24T12:03:56;2.07;;;1.10;;
76346;SDS011;65171;48.378;10.010;2022-11-24T12:09:23;1.40;;;1.20;;
76346;SDS011;65171;48.378;10.010;2022-11-24T12:17:30;1.93;;;1.10;;
76346;SDS011;65171;48.378;10.010;2022-11-24T12:23:12;1.47;;;1.10;;
76346;SDS011;65171;48.378;10.010;2022-11-24T12:25:52;1.90;;;1.27;;
76346;SDS011;65171;48.378;10.010;2022-11-24T12:31:12;2.27;;;1.30;;
76346;SDS011;65171;48.378;10.010;2022-11-24T12:39:24;2.70;;;1.30;;
76346;SDS011;65171;48.378;10.010;2022-11-24T12:50:08;4.13;;;1.40;;
76346;SDS011;65171;48.378;10.010;2022-11-24T12:52:53;2.80;;;1.30;;
76346;SDS011;65171;48.378;10.010;2022-11-24T12:55:23;3.30;;;1.50;;
76346;SDS011;65171;48.378;10.010;2022-11-24T13:00:29;3.00;;;1.13;;
76346;SDS011;65171;48.378;10.010;2022-11-24T13:03:22;3.27;;;1.33;;
76346;SDS011;65171;48.378;10.010;2022-11-24T13:08:34;3.73;;;1.60;;
76346;SDS011;65171;48.378;10.010;2022-11-24T13:13:58;3.60;;;1.37;;
76346;SDS011;65171;48.378;10.010;2022-11-24T13:16:24;3.93;;;1.50;;
76346;SDS011;65171;48.378;10.010;2022-11-24T13:18:54;4.13;;;1.67;;
76346;SDS011;65171;48.378;10.010;2022-11-24T13:23:58;4.27;;;1.60;;
76346;SDS011;65171;48.378;10.010;2022-11-24T13:29:27;3.97;;;1.53;;
76346;SDS011;65171;48.378;10.010;2022-11-24T13:31:51;4.73;;;1.67;;
76346;SDS011;65171;48.378;10.010;2022-11-24T13:37:49;5.00;;;1.57;;
76346;SDS011;65171;48.378;10.010;2022-11-24T13:39:50;5.40;;;1.80;;
76346;SDS011;65171;48.378;10.010;2022-11-24T13:42:15;6.63;;;1.80;;
76346;SDS011;65171;48.378;10.010;2022-11-24T13:44:42;5.10;;;1.63;;
76346;SDS011;65171;48.378;10.010;2022-11-24T13:47:28;4.13;;;1.60;;
76346;SDS011;65171;48.378;10.010;2022-11-24T13:49:56;3.73;;;1.40;;
76346;SDS011;65171;48.378;10.010;2022-11-24T13:55:00;6.97;;;1.83;;
76346;SDS011;65171;48.378;10.010;2022-11-24T13:57:37;5.97;;;1.87;;
76346;SDS011;65171;48.378;10.010;2022-11-24T14:00:05;4.27;;;1.80;;
76346;SDS011;65171;48.378;10.010;2022-11-24T14:02:43;6.70;;;1.70;;
76346;SDS011;65171;48.378;10.010;2022-11-24T14:05:12;3.73;;;1.50;;
76346;SDS011;65171;48.378;10.010;2022-11-24T14:07:40;6.00;;;1.80;;
76346;SDS011;65171;48.378;10.010;2022-11-24T14:10:14;5.10;;;1.77;;
76346;SDS011;65171;48.378;10.010;2022-11-24T14:12:43;6.73;;;1.67;;
76346;SDS011;65171;48.378;10.010;2022-11-24T14:15:28;5.37;;;1.70;;
76346;SDS011;65171;48.378;10.010;2022-11-24T14:17:53;5.57;;;1.60;;
76346;SDS011;65171;48.378;10.010;2022-11-24T14:20:22;5.03;;;1.43;;
76346;SDS011;65171;48.378;10.010;2022-11-24T14:22:48;6.30;;;1.70;;
76346;SDS011;65171;48.378;10.010;2022-11-24T14:25:25;2.93;;;1.50;;
76346;SDS011;65171;48.378;10.010;2022-11-24T14:27:53;9.13;;;1.70;;
76346;SDS011;65171;48.378;10.010;2022-11-24T14:30:19;5.40;;;1.70;;
76346;SDS011;65171;48.378;10.010;2022-11-24T14:32:53;4.30;;;1.67;;
76346;SDS011;65171;48.378;10.010;2022-11-24T14:37:51;5.87;;;1.83;;
76346;SDS011;65171;48.378;10.010;2022-11-24T14:43:01;3.93;;;1.80;;
76346;SDS011;65171;48.378;10.010;2022-11-24T14:45:27;4.87;;;1.50;;
76346;SDS011;65171;48.378;10.010;2022-11-24T14:47:52;6.37;;;2.00;;
76346;SDS011;65171;48.378;10.010;2022-11-24T14:50:18;7.03;;;1.73;;
76346;SDS011;65171;48.378;10.010;2022-11-24T14:52:53;5.47;;;2.00;;
76346;SDS011;65171;48.378;10.010;2022-11-24T14:55:27;4.83;;;1.83;;
76346;SDS011;65171;48.378;10.010;2022-11-24T14:57:57;7.97;;;1.80;;
76346;SDS011;65171;48.378;10.010;2022-11-24T15:02:48;7.10;;;1.98;;
76346;SDS011;65171;48.378;10.010;2022-11-24T15:05:21;8.60;;;2.00;;
76346;SDS011;65171;48.378;10.010;2022-11-24T15:07:49;4.60;;;2.17;;
76346;SDS011;65171;48.378;10.010;2022-11-24T15:10:27;5.17;;;1.70;;
76346;SDS011;65171;48.378;10.010;2022-11-24T15:12:57;7.87;;;1.83;;
76346;SDS011;65171;48.378;10.010;2022-11-24T15:15:34;5.17;;;2.20;;
76346;SDS011;65171;48.378;10.010;2022-11-24T15:18:03;7.00;;;1.80;;
76346;SDS011;65171;48.378;10.010;2022-11-24T15:20:33;6.33;;;2.03;;
76346;SDS011;65171;48.378;10.010;2022-11-24T15:25:44;5.17;;;1.90;;
76346;SDS011;65171;48.378;10.010;2022-11-24T15:28:09;4.10;;;1.60;;
76346;SDS011;65171;48.378;10.010;2022-11-24T15:30:35;5.37;;;1.90;;
76346;SDS011;65171;48.378;10.010;2022-11-24T15:33:01;5.33;;;2.00;;
76346;SDS011;65171;48.378;10.010;2022-11-24T15:35:30;3.70;;;1.83;;
76346;SDS011;65171;48.378;10.010;2022-11-24T15:37:56;8.63;;;1.90;;
76346;SDS011;65171;48.378;10.010;2022-11-24T15:40:22;6.27;;;2.00;;
76346;SDS011;65171;48.378;10.010;2022-11-24T15:42:48;6.60;;;1.93;;
76346;SDS011;65171;48.378;10.010;2022-11-24T15:45:15;7.87;;;2.23;;
76346;SDS011;65171;48.378;10.010;2022-11-24T15:47:41;6.37;;;2.10;;
76346;SDS011;65171;48.378;10.010;2022-11-24T15:50:06;6.30;;;2.00;;
76346;SDS011;65171;48.378;10.010;2022-11-24T15:52:31;5.83;;;2.20;;
76346;SDS011;65171;48.378;10.010;2022-11-24T15:54:57;5.33;;;2.40;;
76346;SDS011;65171;48.378;10.010;2022-11-24T15:57:22;8.40;;;2.27;;
76346;SDS011;65171;48.378;10.010;2022-11-24T15:59:48;8.20;;;2.00;;
76346;SDS011;65171;48.378;10.010;2022-11-24T16:02:13;5.83;;;2.27;;
76346;SDS011;65171;48.378;10.010;2022-11-24T16:04:38;7.17;;;2.70;;
76346;SDS011;65171;48.378;10.010;2022-11-24T16:07:03;5.97;;;2.20;;
76346;SDS011;65171;48.378;10.010;2022-11-24T16:09:28;9.40;;;2.77;;
76346;SDS011;65171;48.378;10.010;2022-11-24T16:11:54;5.23;;;2.60;;
76346;SDS011;65171;48.378;10.010;2022-11-24T16:14:19;5.77;;;2.67;;
76346;SDS011;65171;48.378;10.010;2022-11-24T16:16:44;7.27;;;3.07;;
76346;SDS011;65171;48.378;10.010;2022-11-24T16:19:09;10.50;;;3.20;;
76346;SDS011;65171;48.378;10.010;2022-11-24T16:21:34;7.07;;;3.30;;
76346;SDS011;65171;48.378;10.010;2022-11-24T16:24:00;7.27;;;2.80;;